Denali Natl Park, Alaska
Current Conditions -  °F | °C
As of 3:16 AM on Friday 24 Oct 2014 (Local Time) from PAIN Reporting Station
Overcast Overcast  
Wind Chill: 21°   Ceiling: 4500
Heat Index: 21°   Visibility: 10mi
Dew Point: 19°   Wind: 0mph
Humidity: 93%   Direction: NA
Pressure: 29.73"   Gusts: NA
Location:  63.59°N, 151.34°W
Report Text: PAIN 241116Z AUTO 00000KT 10SM SCT021 OVC045 M06/M07 A2973 RMK AO1
Loading
Personal Weather Stations






























Interactive Weather Map
Tropical Storm Tracking
New forecast layout! Learn more

10-Day Weather Forecast

Advertisements
Track Severe Weather on mobile